createdAt,value
2022-12-16T00:00:06.592Z,-8.76
2022-12-16T00:01:06.627Z,-8.65
2022-12-16T00:02:07.665Z,-8.61
2022-12-16T00:03:06.631Z,-8.70
2022-12-16T00:04:06.568Z,-8.79
2022-12-16T00:05:06.549Z,-8.67
2022-12-16T00:06:06.560Z,-8.68
2022-12-16T00:07:06.537Z,-8.64
2022-12-16T00:08:06.535Z,-8.78
2022-12-16T00:09:06.528Z,-8.65
2022-12-16T00:10:06.523Z,-8.68
2022-12-16T00:11:06.522Z,-8.61
2022-12-16T00:12:06.508Z,-8.76
2022-12-16T00:13:10.523Z,-8.72
2022-12-16T00:14:07.487Z,-8.72
2022-12-16T00:15:06.477Z,-8.76
2022-12-16T00:16:06.609Z,-8.79
2022-12-16T00:17:07.463Z,-8.85
2022-12-16T00:18:06.461Z,-8.82
2022-12-16T00:19:06.447Z,-8.79
2022-12-16T00:20:06.444Z,-8.86
2022-12-16T00:21:06.436Z,-8.90
2022-12-16T00:22:07.022Z,-8.78
2022-12-16T00:23:07.005Z,-8.99
2022-12-16T00:24:06.410Z,-9.00
2022-12-16T00:25:06.430Z,-8.96
2022-12-16T00:26:06.411Z,-8.90
2022-12-16T00:27:48.212Z,-8.96
2022-12-16T00:28:48.201Z,-9.11
2022-12-16T00:29:48.216Z,-9.04
2022-12-16T00:30:49.293Z,-9.00
2022-12-16T00:31:49.311Z,-8.90
2022-12-16T00:32:50.142Z,-9.04
2022-12-16T00:33:49.268Z,-9.04
2022-12-16T00:34:49.250Z,-9.04
2022-12-16T00:35:49.245Z,-8.97
2022-12-16T00:36:49.245Z,-9.12
2022-12-16T00:37:49.242Z,-8.97
2022-12-16T00:38:49.251Z,-9.00
2022-12-16T00:39:49.220Z,-8.99
2022-12-16T00:40:49.230Z,-9.02
2022-12-16T00:41:49.235Z,-8.97
2022-12-16T00:43:56.995Z,-9.11
2022-12-16T00:44:57.020Z,-9.14
2022-12-16T00:45:57.024Z,-9.12
2022-12-16T00:46:56.983Z,-9.14
2022-12-16T00:47:58.068Z,-9.18
2022-12-16T00:48:58.073Z,-9.17
2022-12-16T00:49:58.062Z,-9.32
2022-12-16T00:50:58.046Z,-9.29
2022-12-16T00:51:58.045Z,-9.25
2022-12-16T00:52:58.045Z,-9.22
2022-12-16T00:53:58.029Z,-9.31
2022-12-16T00:54:58.008Z,-9.29
2022-12-16T00:55:58.023Z,-9.36
2022-12-16T00:56:58.011Z,-9.38
2022-12-16T00:57:57.987Z,-9.33
2022-12-16T00:58:57.999Z,-9.32
2022-12-16T00:59:57.971Z,-9.35
2022-12-16T01:00:58.035Z,-9.35
2022-12-16T01:01:58.333Z,-9.35
2022-12-16T01:02:58.113Z,-9.33
2022-12-16T01:04:45.889Z,-9.33
2022-12-16T01:05:45.890Z,-9.33
2022-12-16T01:06:45.874Z,-9.25
2022-12-16T01:07:45.859Z,-9.25
2022-12-16T01:08:45.965Z,-9.21
2022-12-16T01:09:45.846Z,-9.29
2022-12-16T01:10:45.848Z,-9.32
2022-12-16T01:11:45.837Z,-9.24
2022-12-16T01:12:45.822Z,-9.35
2022-12-16T01:13:46.910Z,-9.32
2022-12-16T01:14:46.906Z,-9.24
2022-12-16T01:15:46.909Z,-9.33
2022-12-16T01:16:46.968Z,-9.25
2022-12-16T01:17:46.882Z,-9.35
2022-12-16T01:18:46.872Z,-9.31
2022-12-16T01:19:47.864Z,-9.31
2022-12-16T01:20:46.867Z,-9.33
2022-12-16T01:21:46.867Z,-9.39
2022-12-16T01:22:46.868Z,-9.33
2022-12-16T01:23:46.836Z,-9.35
2022-12-16T01:24:46.830Z,-9.33
2022-12-16T01:25:46.820Z,-9.28
2022-12-16T01:26:46.820Z,-9.28
2022-12-16T01:27:46.802Z,-9.35
2022-12-16T01:28:46.802Z,-9.39
2022-12-16T01:29:46.787Z,-9.33
2022-12-16T01:30:46.792Z,-9.38
2022-12-16T01:31:46.839Z,-9.25
2022-12-16T01:32:46.781Z,-9.32
2022-12-16T01:33:46.761Z,-9.32
2022-12-16T01:34:51.055Z,-9.21
2022-12-16T01:35:55.812Z,-9.22
2022-12-16T01:36:48.767Z,-9.32
2022-12-16T01:37:46.741Z,-9.28
2022-12-16T01:38:46.727Z,-9.31
2022-12-16T01:39:46.725Z,-9.31
2022-12-16T01:40:47.710Z,-9.22
2022-12-16T01:41:47.700Z,-9.31
2022-12-16T01:42:46.696Z,-9.33
2022-12-16T01:43:46.696Z,-9.35
2022-12-16T01:44:46.673Z,-9.31
2022-12-16T01:45:46.722Z,-9.25
2022-12-16T01:46:46.661Z,-9.22
2022-12-16T01:47:46.670Z,-9.32
2022-12-16T01:48:46.648Z,-9.31
2022-12-16T01:49:46.646Z,-9.33
2022-12-16T01:50:46.640Z,-9.29
2022-12-16T01:51:52.457Z,-9.29
2022-12-16T01:52:48.619Z,-9.33
2022-12-16T01:53:46.613Z,-9.31
2022-12-16T01:54:46.604Z,-9.35
2022-12-16T01:55:46.591Z,-9.31
2022-12-16T01:56:46.597Z,-9.32
2022-12-16T01:57:46.574Z,-9.41
2022-12-16T01:58:46.589Z,-9.32
2022-12-16T01:59:46.568Z,-9.33
2022-12-16T02:00:46.597Z,-9.28
2022-12-16T02:01:46.625Z,-9.36
2022-12-16T02:02:46.667Z,-9.39
2022-12-16T02:03:46.530Z,-9.29
2022-12-16T02:04:46.532Z,-9.25
2022-12-16T02:05:46.517Z,-9.32
2022-12-16T02:06:46.506Z,-9.29
2022-12-16T02:07:46.507Z,-9.33
2022-12-16T02:08:46.487Z,-9.35
2022-12-16T02:09:46.480Z,-9.29
2022-12-16T02:10:46.494Z,-9.35
2022-12-16T02:11:46.464Z,-9.43
2022-12-16T02:12:46.457Z,-9.29
2022-12-16T02:13:46.446Z,-9.28
2022-12-16T02:14:46.444Z,-9.38
2022-12-16T02:15:46.454Z,-9.33
2022-12-16T02:16:46.457Z,-9.24
2022-12-16T02:17:46.422Z,-9.35
2022-12-16T02:18:46.438Z,-9.29
2022-12-16T02:19:46.427Z,-9.15
2022-12-16T02:20:46.410Z,-9.21
2022-12-16T02:21:46.401Z,-9.25
2022-12-16T02:22:46.393Z,-9.28
2022-12-16T02:23:46.378Z,-9.33
2022-12-16T02:24:46.371Z,-9.24
2022-12-16T02:25:46.377Z,-9.32
2022-12-16T02:26:46.361Z,-9.21
2022-12-16T02:27:46.350Z,-9.25
2022-12-16T02:28:46.347Z,-9.12
2022-12-16T02:29:46.338Z,-9.22
2022-12-16T02:30:46.363Z,-9.21
2022-12-16T02:31:49.232Z,-9.15
2022-12-16T02:32:48.317Z,-9.25
2022-12-16T02:33:46.308Z,-9.21
2022-12-16T02:34:46.305Z,-9.15
2022-12-16T02:35:46.297Z,-9.12
2022-12-16T02:36:46.306Z,-9.22
2022-12-16T02:37:46.276Z,-9.20
2022-12-16T02:38:46.264Z,-9.32
2022-12-16T02:39:46.261Z,-9.31
2022-12-16T02:40:46.251Z,-9.33
2022-12-16T02:41:46.285Z,-9.41
2022-12-16T02:42:46.244Z,-9.46
2022-12-16T02:43:46.227Z,-9.53
2022-12-16T02:44:46.261Z,-9.48
2022-12-16T02:45:46.251Z,-9.55
2022-12-16T02:46:46.205Z,-9.54
2022-12-16T02:47:46.203Z,-9.53
2022-12-16T02:48:46.194Z,-9.57
2022-12-16T02:49:46.183Z,-9.63
2022-12-16T02:50:46.178Z,-9.63
2022-12-16T02:51:46.174Z,-9.54
2022-12-16T02:52:46.164Z,-9.51
2022-12-16T02:53:46.178Z,-9.66
2022-12-16T02:54:46.143Z,-9.60
2022-12-16T02:55:46.138Z,-9.58
2022-12-16T02:56:46.131Z,-9.60
2022-12-16T02:57:46.119Z,-9.61
2022-12-16T02:58:47.116Z,-9.60
2022-12-16T02:59:46.112Z,-9.63
2022-12-16T03:00:46.104Z,-9.57
2022-12-16T03:01:46.203Z,-9.63
2022-12-16T03:02:46.166Z,-9.54
2022-12-16T03:03:46.106Z,-9.57
2022-12-16T03:04:46.071Z,-9.60
2022-12-16T03:05:46.783Z,-9.66
2022-12-16T03:06:46.778Z,-9.66
2022-12-16T03:07:46.051Z,-9.61
2022-12-16T03:08:46.042Z,-9.63
2022-12-16T03:09:46.030Z,-9.64
2022-12-16T03:10:46.021Z,-9.63
2022-12-16T03:11:46.018Z,-9.55
2022-12-16T03:12:47.014Z,-9.60
2022-12-16T03:13:46.001Z,-9.63
2022-12-16T03:14:45.996Z,-9.64
2022-12-16T03:15:45.984Z,-9.68
2022-12-16T03:16:46.124Z,-9.75
2022-12-16T03:17:45.968Z,-9.78
2022-12-16T03:18:45.991Z,-9.73
2022-12-16T03:19:45.965Z,-9.76
2022-12-16T03:20:45.946Z,-9.66
2022-12-16T03:21:45.936Z,-9.72
2022-12-16T03:22:45.939Z,-9.72
2022-12-16T03:23:45.929Z,-9.71
2022-12-16T03:24:45.927Z,-9.73
2022-12-16T03:25:47.715Z,-9.79
2022-12-16T03:26:45.911Z,-9.68
2022-12-16T03:27:45.903Z,-9.75
2022-12-16T03:28:45.884Z,-9.73
2022-12-16T03:29:45.887Z,-9.73
2022-12-16T03:30:45.970Z,-9.71
2022-12-16T03:31:45.878Z,-9.73
2022-12-16T03:32:45.867Z,-9.87
2022-12-16T03:33:45.852Z,-9.76
2022-12-16T03:34:45.842Z,-9.78
2022-12-16T03:35:45.848Z,-9.84
2022-12-16T03:36:45.835Z,-9.71
2022-12-16T03:37:45.831Z,-9.75
2022-12-16T03:38:45.811Z,-9.87
2022-12-16T03:39:45.795Z,-9.81
2022-12-16T03:40:46.825Z,-9.82
2022-12-16T03:41:45.782Z,-9.86
2022-12-16T03:42:45.785Z,-9.79
2022-12-16T03:43:45.774Z,-9.87
2022-12-16T03:44:45.769Z,-9.87
2022-12-16T03:45:45.847Z,-9.84
2022-12-16T03:46:45.826Z,-9.87
2022-12-16T03:47:45.746Z,-9.73
2022-12-16T03:48:45.738Z,-9.79
2022-12-16T03:49:45.734Z,-9.76
2022-12-16T03:50:45.719Z,-9.73
2022-12-16T03:51:45.718Z,-9.69
2022-12-16T03:52:45.718Z,-9.75
2022-12-16T03:53:45.701Z,-9.86
2022-12-16T03:54:45.697Z,-9.72
2022-12-16T03:55:45.684Z,-9.81
2022-12-16T03:56:45.691Z,-9.73
2022-12-16T03:57:45.672Z,-9.79
2022-12-16T03:58:45.670Z,-9.66
2022-12-16T03:59:45.660Z,-9.69
2022-12-16T04:00:45.645Z,-9.73
2022-12-16T04:01:46.340Z,-9.73
2022-12-16T04:02:45.809Z,-9.69
2022-12-16T04:03:45.667Z,-9.75
2022-12-16T04:04:45.615Z,-9.64
2022-12-16T04:05:45.609Z,-9.71
2022-12-16T04:06:45.598Z,-9.73
2022-12-16T04:07:45.600Z,-9.63
2022-12-16T04:08:45.582Z,-9.73
2022-12-16T04:09:45.579Z,-9.66
2022-12-16T04:10:45.567Z,-9.72
2022-12-16T04:11:45.569Z,-9.78
2022-12-16T04:12:45.561Z,-9.76
2022-12-16T04:13:45.555Z,-9.73
2022-12-16T04:14:50.282Z,-9.73
2022-12-16T04:15:47.603Z,-9.72
2022-12-16T04:16:45.524Z,-9.64
2022-12-16T04:17:45.520Z,-9.64
2022-12-16T04:18:45.513Z,-9.75
2022-12-16T04:19:45.507Z,-9.63
2022-12-16T04:20:45.496Z,-9.58
2022-12-16T04:21:45.486Z,-9.66
2022-12-16T04:22:45.502Z,-9.55
2022-12-16T04:23:45.481Z,-9.57
2022-12-16T04:24:45.479Z,-9.54
2022-12-16T04:25:45.459Z,-9.55
2022-12-16T04:26:45.458Z,-9.72
2022-12-16T04:27:45.451Z,-9.58
2022-12-16T04:28:45.449Z,-9.66
2022-12-16T04:29:47.459Z,-9.60
2022-12-16T04:30:45.495Z,-9.55
2022-12-16T04:31:46.283Z,-9.71
2022-12-16T04:32:45.807Z,-9.72
2022-12-16T04:33:45.399Z,-9.66
2022-12-16T04:34:45.405Z,-9.60
2022-12-16T04:35:45.394Z,-9.66
2022-12-16T04:36:45.384Z,-9.69
2022-12-16T04:37:45.382Z,-9.63
2022-12-16T04:38:45.369Z,-9.64
2022-12-16T04:39:45.359Z,-9.58
2022-12-16T04:40:45.354Z,-9.64
2022-12-16T04:41:45.347Z,-9.78
2022-12-16T04:42:45.340Z,-9.92
2022-12-16T04:43:45.325Z,-9.79
2022-12-16T04:44:45.318Z,-9.76
2022-12-16T04:45:45.320Z,-9.78
2022-12-16T04:46:45.378Z,-9.86
2022-12-16T04:47:45.301Z,-9.96
2022-12-16T04:48:45.291Z,-10.00
2022-12-16T04:49:45.292Z,-10.02
2022-12-16T04:50:45.275Z,-9.97
2022-12-16T04:51:45.268Z,-9.94
2022-12-16T04:52:46.266Z,-10.04
2022-12-16T04:53:45.252Z,-10.07
2022-12-16T04:54:45.250Z,-9.99
2022-12-16T04:55:45.238Z,-10.08
2022-12-16T04:56:45.233Z,-10.04
2022-12-16T04:57:45.225Z,-10.07
2022-12-16T04:58:45.208Z,-10.13
2022-12-16T04:59:45.205Z,-10.10
2022-12-16T05:00:45.195Z,-10.13
2022-12-16T05:01:45.345Z,-10.08
2022-12-16T05:02:45.359Z,-10.13
2022-12-16T05:03:45.216Z,-10.17
2022-12-16T05:04:45.169Z,-10.13
2022-12-16T05:05:45.709Z,-10.10
2022-12-16T05:06:45.172Z,-10.15
2022-12-16T05:07:45.715Z,-10.14
2022-12-16T05:08:45.158Z,-10.22
2022-12-16T05:09:45.149Z,-10.08
2022-12-16T05:10:45.134Z,-10.13
2022-12-16T05:11:45.117Z,-10.13
2022-12-16T05:12:45.121Z,-10.08
2022-12-16T05:13:45.109Z,-10.11
2022-12-16T05:14:45.100Z,-10.11
2022-12-16T05:15:45.126Z,-10.13
2022-12-16T05:16:45.098Z,-10.07
2022-12-16T05:17:45.076Z,-10.05
2022-12-16T05:18:45.075Z,-9.99
2022-12-16T05:19:45.066Z,-10.11
2022-12-16T05:20:45.055Z,-10.07
2022-12-16T05:21:45.047Z,-10.04
2022-12-16T05:22:45.052Z,-10.04
2022-12-16T05:23:45.035Z,-9.89
2022-12-16T05:24:48.529Z,-9.94
2022-12-16T05:25:47.015Z,-9.89
2022-12-16T05:26:45.010Z,-9.89
2022-12-16T05:27:45.008Z,-9.78
2022-12-16T05:28:44.995Z,-9.72
2022-12-16T05:29:44.998Z,-9.61
2022-12-16T05:30:45.078Z,-9.68
2022-12-16T05:31:45.007Z,-9.54
2022-12-16T05:32:44.962Z,-9.61
2022-12-16T05:33:44.985Z,-9.48
2022-12-16T05:34:44.953Z,-9.53
2022-12-16T05:35:44.948Z,-9.46
2022-12-16T05:36:45.713Z,-9.38
2022-12-16T05:37:44.936Z,-9.28
2022-12-16T05:38:44.920Z,-9.32
2022-12-16T05:39:44.963Z,-9.21
2022-12-16T05:40:44.905Z,-9.18
2022-12-16T05:41:44.899Z,-9.10
2022-12-16T05:42:44.894Z,-9.14
2022-12-16T05:43:44.884Z,-9.12
2022-12-16T05:44:44.884Z,-9.06
2022-12-16T05:45:45.336Z,-9.06
2022-12-16T05:46:44.938Z,-8.97
2022-12-16T05:47:45.713Z,-8.82
2022-12-16T05:48:47.829Z,-8.82
2022-12-16T05:49:45.839Z,-8.83
2022-12-16T05:50:44.839Z,-8.75
2022-12-16T05:51:44.822Z,-8.72
2022-12-16T05:52:44.822Z,-8.58
2022-12-16T05:53:44.818Z,-8.54
2022-12-16T05:54:44.799Z,-8.46
2022-12-16T05:55:44.811Z,-8.42
2022-12-16T05:56:44.791Z,-8.32
2022-12-16T05:57:44.780Z,-8.19
2022-12-16T05:58:44.797Z,-8.25
2022-12-16T05:59:44.768Z,-8.16
2022-12-16T06:00:44.762Z,-8.16
2022-12-16T06:01:44.925Z,-8.18
2022-12-16T06:02:44.885Z,-8.11
2022-12-16T06:03:44.879Z,-8.18
2022-12-16T06:04:44.729Z,-7.97
2022-12-16T06:05:44.728Z,-8.10
2022-12-16T06:06:44.727Z,-7.99
2022-12-16T06:07:44.712Z,-8.01
2022-12-16T06:08:44.707Z,-7.99
2022-12-16T06:09:44.687Z,-8.03
2022-12-16T06:10:44.694Z,-7.99
2022-12-16T06:11:44.728Z,-7.96
2022-12-16T06:12:44.673Z,-7.97
2022-12-16T06:13:44.658Z,-7.83
2022-12-16T06:14:44.664Z,-7.79
2022-12-16T06:15:44.646Z,-7.81
2022-12-16T06:16:44.664Z,-7.79
2022-12-16T06:17:45.643Z,-7.89
2022-12-16T06:18:44.623Z,-7.93
2022-12-16T06:19:44.625Z,-7.96
2022-12-16T06:20:44.626Z,-7.97
2022-12-16T06:21:44.602Z,-7.99
2022-12-16T06:22:45.324Z,-8.16
2022-12-16T06:23:44.587Z,-8.19
2022-12-16T06:24:44.581Z,-8.07
2022-12-16T06:25:44.583Z,-8.23
2022-12-16T06:26:44.567Z,-8.13
2022-12-16T06:27:44.558Z,-8.18
2022-12-16T06:28:46.135Z,-8.11
2022-12-16T06:29:45.540Z,-8.13
2022-12-16T06:30:44.554Z,-8.01
2022-12-16T06:31:44.576Z,-8.08
2022-12-16T06:32:44.525Z,-7.96
2022-12-16T06:33:44.514Z,-7.92
2022-12-16T06:34:44.506Z,-7.93
2022-12-16T06:35:44.492Z,-7.83
2022-12-16T06:36:44.498Z,-7.86
2022-12-16T06:37:44.482Z,-7.83
2022-12-16T06:38:44.478Z,-7.82
2022-12-16T06:39:47.526Z,-7.88
2022-12-16T06:40:45.472Z,-8.03
2022-12-16T06:41:45.219Z,-8.11
2022-12-16T06:42:44.448Z,-7.96
2022-12-16T06:43:44.448Z,-8.07
2022-12-16T06:44:44.437Z,-7.92
2022-12-16T06:45:44.473Z,-7.97
2022-12-16T06:46:44.417Z,-7.92
2022-12-16T06:47:44.418Z,-7.88
2022-12-16T06:48:44.444Z,-8.04
2022-12-16T06:49:44.533Z,-7.93
2022-12-16T06:50:45.141Z,-7.83
2022-12-16T06:51:45.378Z,-7.92
2022-12-16T06:52:44.390Z,-7.82
2022-12-16T06:54:51.339Z,-7.85
2022-12-16T06:55:51.342Z,-7.82
2022-12-16T06:56:51.328Z,-7.82
2022-12-16T06:57:51.330Z,-7.88
2022-12-16T06:58:51.316Z,-7.82
2022-12-16T06:59:51.316Z,-7.83
2022-12-16T07:00:51.352Z,-7.83
2022-12-16T07:01:51.578Z,-7.91
2022-12-16T07:02:51.442Z,-7.81
2022-12-16T07:03:51.289Z,-7.81
2022-12-16T07:04:53.196Z,-7.81
2022-12-16T07:05:53.361Z,-7.74
2022-12-16T07:06:52.358Z,-7.81
2022-12-16T07:07:52.520Z,-7.75
2022-12-16T07:08:53.335Z,-7.72
2022-12-16T07:09:53.473Z,-7.63
2022-12-16T07:10:52.346Z,-7.68
2022-12-16T07:11:52.314Z,-7.56
2022-12-16T07:12:52.310Z,-7.44
2022-12-16T07:13:52.363Z,-7.46
2022-12-16T07:14:53.209Z,-7.42
2022-12-16T07:15:52.287Z,-7.35
2022-12-16T07:16:52.346Z,-7.33
2022-12-16T07:17:52.281Z,-7.13
2022-12-16T07:18:52.279Z,-7.13
2022-12-16T07:19:52.273Z,-7.17
2022-12-16T07:20:52.262Z,-7.07
2022-12-16T07:21:52.251Z,-6.92
2022-12-16T07:23:01.066Z,-7.04
2022-12-16T07:23:54.238Z,-6.96
2022-12-16T07:24:52.222Z,-6.87
2022-12-16T07:25:52.220Z,-6.75
2022-12-16T07:26:52.220Z,-6.79
2022-12-16T07:27:52.282Z,-6.65
2022-12-16T07:28:52.209Z,-6.68
2022-12-16T07:29:52.193Z,-6.68
2022-12-16T07:30:52.181Z,-6.53
2022-12-16T07:31:52.286Z,-6.58
2022-12-16T07:32:52.168Z,-6.61
2022-12-16T07:33:52.150Z,-6.53
2022-12-16T07:34:52.161Z,-6.41
2022-12-16T07:35:52.139Z,-6.41
2022-12-16T07:36:53.129Z,-6.35
2022-12-16T07:37:52.196Z,-6.28
2022-12-16T07:38:52.141Z,-6.35
2022-12-16T07:39:55.218Z,-6.32
2022-12-16T07:40:53.107Z,-6.32
2022-12-16T07:41:52.104Z,-6.42
2022-12-16T07:42:52.132Z,-6.61
2022-12-16T07:43:52.084Z,-6.60
2022-12-16T07:44:52.111Z,-6.72
2022-12-16T07:45:52.094Z,-6.78
2022-12-16T07:46:52.067Z,-6.83
2022-12-16T07:47:52.049Z,-6.97
2022-12-16T07:48:52.059Z,-6.93
2022-12-16T07:49:52.048Z,-7.04
2022-12-16T07:50:52.022Z,-6.94
2022-12-16T07:51:52.051Z,-7.07
2022-12-16T07:52:52.010Z,-6.97
2022-12-16T07:53:52.009Z,-7.10
2022-12-16T07:54:51.998Z,-6.96
2022-12-16T07:55:51.990Z,-6.96
2022-12-16T07:56:51.989Z,-6.99
2022-12-16T07:57:51.967Z,-6.99
2022-12-16T07:58:51.963Z,-6.87
2022-12-16T07:59:51.968Z,-6.93
2022-12-16T08:00:51.972Z,-6.93
2022-12-16T08:01:52.634Z,-6.93
2022-12-16T08:02:52.094Z,-6.79
2022-12-16T08:03:52.172Z,-6.75
2022-12-16T08:04:51.915Z,-6.76
2022-12-16T08:05:51.920Z,-6.66
2022-12-16T08:06:51.899Z,-6.66
2022-12-16T08:07:51.897Z,-6.53
2022-12-16T08:08:51.893Z,-6.46
2022-12-16T08:09:51.894Z,-6.47
2022-12-16T08:10:51.886Z,-6.47
2022-12-16T08:11:51.872Z,-6.46
2022-12-16T08:12:51.921Z,-6.38
2022-12-16T08:13:51.862Z,-6.35
2022-12-16T08:14:51.858Z,-6.24
2022-12-16T08:15:51.851Z,-6.17
2022-12-16T08:16:51.885Z,-6.10
2022-12-16T08:17:52.458Z,-6.00
2022-12-16T08:18:51.818Z,-5.97
2022-12-16T08:19:51.868Z,-5.86
2022-12-16T08:20:51.800Z,-5.92
2022-12-16T08:21:59.726Z,-5.74
2022-12-16T08:22:54.294Z,-5.68
2022-12-16T08:24:58.106Z,-5.51
2022-12-16T08:25:58.112Z,-5.53
2022-12-16T08:27:19.099Z,-5.40
2022-12-16T08:27:58.150Z,-5.38
2022-12-16T08:29:05.530Z,-5.45
2022-12-16T08:30:01.967Z,-5.39
2022-12-16T08:30:59.252Z,-5.40
2022-12-16T08:32:00.151Z,-5.42
2022-12-16T08:33:07.189Z,-5.33
2022-12-16T08:34:01.152Z,-5.28
2022-12-16T08:35:00.109Z,-5.22
2022-12-16T08:35:59.113Z,-5.31
2022-12-16T08:36:59.110Z,-5.22
2022-12-16T08:37:59.097Z,-5.19
2022-12-16T08:38:59.099Z,-5.14
2022-12-16T08:40:25.637Z,-5.13
2022-12-16T08:41:01.071Z,-5.06
2022-12-16T08:41:59.068Z,-5.06
2022-12-16T08:42:59.062Z,-5.00
2022-12-16T08:43:59.046Z,-5.00
2022-12-16T08:44:59.045Z,-5.00
2022-12-16T08:45:59.059Z,-5.03
2022-12-16T08:46:59.060Z,-4.99
2022-12-16T08:47:59.016Z,-4.99
2022-12-16T08:48:59.010Z,-5.06
2022-12-16T08:50:01.712Z,-4.91
2022-12-16T08:51:00.009Z,-4.95
2022-12-16T08:51:59.012Z,-4.95
2022-12-16T08:52:58.983Z,-4.84
2022-12-16T08:53:58.977Z,-4.85
2022-12-16T08:54:58.973Z,-4.77
2022-12-16T08:55:58.969Z,-4.71
2022-12-16T08:56:58.973Z,-4.71
2022-12-16T08:57:58.944Z,-4.73
2022-12-16T08:58:58.933Z,-4.64
2022-12-16T08:59:58.941Z,-4.59
2022-12-16T09:01:04.696Z,-4.53
2022-12-16T09:02:00.995Z,-4.39
2022-12-16T09:02:59.214Z,-4.55
2022-12-16T09:03:58.977Z,-4.38
2022-12-16T09:04:59.900Z,-4.32
2022-12-16T09:05:58.876Z,-4.24
2022-12-16T09:06:58.871Z,-4.22
2022-12-16T09:07:58.855Z,-4.17
2022-12-16T09:08:58.845Z,-4.13
2022-12-16T09:09:58.862Z,-4.07
2022-12-16T09:10:58.842Z,-4.02
2022-12-16T09:11:58.829Z,-3.91
2022-12-16T09:12:58.821Z,-3.86
2022-12-16T09:13:58.809Z,-3.92
2022-12-16T09:14:58.798Z,-3.91
2022-12-16T09:16:00.062Z,-3.88
2022-12-16T09:16:58.791Z,-3.89
2022-12-16T09:17:58.804Z,-3.83
2022-12-16T09:18:58.776Z,-3.80
2022-12-16T09:19:58.770Z,-3.75
2022-12-16T09:20:58.780Z,-3.75
2022-12-16T09:21:58.749Z,-3.86
2022-12-16T09:22:58.762Z,-3.88
2022-12-16T09:23:58.750Z,-3.89
2022-12-16T09:24:58.730Z,-3.91
2022-12-16T09:25:58.840Z,-3.89
2022-12-16T09:26:58.854Z,-3.91
2022-12-16T09:27:58.703Z,-4.03
2022-12-16T09:28:58.701Z,-3.92
2022-12-16T09:29:58.691Z,-3.99
2022-12-16T09:30:58.764Z,-3.95
2022-12-16T09:31:58.670Z,-3.95
2022-12-16T09:32:58.679Z,-3.92
2022-12-16T09:33:58.653Z,-3.92
2022-12-16T09:34:58.648Z,-3.85
2022-12-16T09:35:58.641Z,-3.78
2022-12-16T09:36:58.643Z,-3.72
2022-12-16T09:37:58.649Z,-3.74
2022-12-16T09:38:58.633Z,-3.72
2022-12-16T09:39:58.611Z,-3.49
2022-12-16T09:40:58.637Z,-3.70
2022-12-16T09:41:58.606Z,-3.55
2022-12-16T09:42:59.553Z,-3.52
2022-12-16T09:43:59.485Z,-3.41
2022-12-16T09:44:58.574Z,-3.48
2022-12-16T09:45:58.596Z,-3.34
2022-12-16T09:47:00.958Z,-3.31
2022-12-16T09:48:00.549Z,-3.30
2022-12-16T09:48:58.557Z,-3.17
2022-12-16T09:49:58.540Z,-3.23
2022-12-16T09:50:58.525Z,-3.15
2022-12-16T09:51:58.521Z,-3.09
2022-12-16T09:52:58.504Z,-2.89
2022-12-16T09:53:59.500Z,-2.92
2022-12-16T09:54:58.504Z,-3.06
2022-12-16T09:55:58.494Z,-2.86
2022-12-16T09:56:58.486Z,-2.80
2022-12-16T09:57:58.474Z,-2.81
2022-12-16T09:58:58.479Z,-2.78
2022-12-16T09:59:58.465Z,-2.65
2022-12-16T10:00:58.455Z,-2.62
2022-12-16T10:01:58.623Z,-2.58
2022-12-16T10:03:04.884Z,-2.66
2022-12-16T10:04:00.513Z,-2.62
2022-12-16T10:04:58.421Z,-2.50
2022-12-16T10:05:58.416Z,-2.50
2022-12-16T10:06:58.402Z,-2.44
2022-12-16T10:07:58.396Z,-2.42
2022-12-16T10:08:58.407Z,-2.26
2022-12-16T10:09:58.385Z,-2.30
2022-12-16T10:10:58.374Z,-2.37
2022-12-16T10:11:58.370Z,-2.44
2022-12-16T10:12:58.354Z,-2.50
2022-12-16T10:13:58.356Z,-2.52
2022-12-16T10:14:58.340Z,-2.45
2022-12-16T10:15:58.358Z,-2.37
2022-12-16T10:16:58.326Z,-2.30
2022-12-16T10:17:58.318Z,-2.21
2022-12-16T10:18:58.429Z,-2.19
2022-12-16T10:19:58.312Z,-2.13
2022-12-16T10:20:59.053Z,-2.22
2022-12-16T10:21:58.289Z,-2.16
2022-12-16T10:22:58.290Z,-2.19
2022-12-16T10:23:58.270Z,-2.15
2022-12-16T10:24:58.261Z,-2.12
2022-12-16T10:25:58.252Z,-2.08
2022-12-16T10:26:58.268Z,-2.13
2022-12-16T10:27:58.976Z,-2.00
2022-12-16T10:28:58.259Z,-2.04
2022-12-16T10:29:58.232Z,-2.12
2022-12-16T10:30:59.106Z,-2.12
2022-12-16T10:31:58.222Z,-2.02
2022-12-16T10:32:58.202Z,-2.02
2022-12-16T10:33:58.204Z,-2.01
2022-12-16T10:34:58.191Z,-1.86
2022-12-16T10:35:59.057Z,-1.76
2022-12-16T10:36:58.172Z,-1.74
2022-12-16T10:37:58.171Z,-1.76
2022-12-16T10:38:58.168Z,-1.66
2022-12-16T10:39:58.155Z,-1.53
2022-12-16T10:40:58.139Z,-1.35
2022-12-16T10:41:58.187Z,-1.14
2022-12-16T10:42:58.127Z,-1.11
2022-12-16T10:43:58.124Z,-0.99
2022-12-16T10:44:58.125Z,-0.71
2022-12-16T10:45:58.144Z,-0.68
2022-12-16T10:46:58.181Z,-0.65
2022-12-16T10:47:58.086Z,-0.70
2022-12-16T10:48:59.088Z,-0.85
2022-12-16T10:49:58.125Z,-0.99
2022-12-16T10:50:58.072Z,-1.01
2022-12-16T10:51:58.054Z,-0.99
2022-12-16T10:52:58.063Z,-0.82
2022-12-16T10:53:58.037Z,-0.80
2022-12-16T10:54:58.049Z,-0.72
2022-12-16T10:55:58.022Z,-0.65
2022-12-16T10:56:58.586Z,-0.53
2022-12-16T10:57:58.020Z,-0.43
2022-12-16T10:58:58.092Z,-0.38
2022-12-16T10:59:58.024Z,-0.31
2022-12-16T11:00:58.005Z,-0.36
2022-12-16T11:01:58.062Z,-0.62
2022-12-16T11:02:58.169Z,-0.54
2022-12-16T11:03:58.014Z,-0.46
2022-12-16T11:04:58.953Z,-0.46
2022-12-16T11:05:57.941Z,-0.32
2022-12-16T11:06:57.941Z,-0.29
2022-12-16T11:07:57.919Z,-0.32
2022-12-16T11:08:57.919Z,-0.21
2022-12-16T11:09:57.913Z,-0.46
2022-12-16T11:10:57.899Z,-0.53
2022-12-16T11:13:04.665Z,-0.56
2022-12-16T11:14:04.899Z,-0.62
2022-12-16T11:15:28.271Z,-0.65
2022-12-16T11:16:05.703Z,-0.68
2022-12-16T11:17:04.634Z,-0.65
2022-12-16T11:18:04.629Z,-0.62
2022-12-16T11:19:04.618Z,-0.59
2022-12-16T11:20:04.618Z,-0.41
2022-12-16T11:21:08.664Z,-0.53
2022-12-16T11:22:05.591Z,-0.57
2022-12-16T11:23:05.672Z,-0.56
2022-12-16T11:24:05.679Z,-0.54
2022-12-16T11:25:05.693Z,-0.59
2022-12-16T11:26:05.661Z,-0.52
2022-12-16T11:27:05.655Z,-0.39
2022-12-16T11:28:05.638Z,-0.43
2022-12-16T11:29:05.701Z,-0.35
2022-12-16T11:30:05.751Z,-0.35
2022-12-16T11:31:05.704Z,-0.31
2022-12-16T11:32:05.641Z,-0.28
2022-12-16T11:33:05.618Z,-0.21
2022-12-16T11:34:05.631Z,-0.11
2022-12-16T11:35:05.578Z,-0.11
2022-12-16T11:36:05.600Z,-0.20
2022-12-16T11:37:05.615Z,-0.35
2022-12-16T11:38:05.567Z,-0.44
2022-12-16T11:39:05.550Z,-0.47
2022-12-16T11:40:05.540Z,-0.54
2022-12-16T11:41:05.542Z,-0.56
2022-12-16T11:42:05.553Z,-0.38
2022-12-16T11:43:11.613Z,-0.52
2022-12-16T11:44:07.523Z,-0.56
2022-12-16T11:45:05.511Z,-0.49
2022-12-16T11:46:05.568Z,-0.49
2022-12-16T11:47:06.244Z,-0.35
2022-12-16T11:48:53.103Z,-0.36
2022-12-16T11:49:53.095Z,-0.52
2022-12-16T11:50:53.752Z,-0.49
2022-12-16T11:52:03.814Z,-0.57
2022-12-16T11:52:56.863Z,-0.65
2022-12-16T11:53:54.160Z,-0.67
2022-12-16T11:54:54.212Z,-0.70
2022-12-16T11:56:05.831Z,-0.70
2022-12-16T11:56:56.391Z,-0.71
2022-12-16T11:57:54.831Z,-0.57
2022-12-16T11:58:55.271Z,-0.59
2022-12-16T11:59:55.364Z,-0.64
2022-12-16T12:00:54.134Z,-0.56
2022-12-16T12:01:55.469Z,-0.67
2022-12-16T12:02:54.143Z,-0.67
2022-12-16T12:03:55.918Z,-0.59
2022-12-16T12:04:55.838Z,-0.62
2022-12-16T12:05:54.080Z,-0.59
2022-12-16T12:06:54.058Z,-0.61
2022-12-16T12:07:55.573Z,-0.67
2022-12-16T12:08:54.059Z,-0.70
2022-12-16T12:09:54.051Z,-0.68
2022-12-16T12:10:54.022Z,-0.72
2022-12-16T12:11:54.017Z,-0.59
2022-12-16T12:12:56.797Z,-0.64
2022-12-16T12:13:54.018Z,-0.57
2022-12-16T12:14:54.011Z,-0.52
2022-12-16T21:26:56.605Z,-3.30
2022-12-16T21:27:56.585Z,-3.27
2022-12-16T21:28:56.572Z,-3.28
2022-12-16T21:29:57.660Z,-3.30
2022-12-16T21:30:57.670Z,-3.13
2022-12-16T21:31:57.669Z,-3.19
2022-12-16T21:32:57.639Z,-3.25
2022-12-16T21:33:57.636Z,-3.16
2022-12-16T21:34:57.627Z,-3.30
2022-12-16T21:35:57.620Z,-3.22
2022-12-16T21:36:57.620Z,-3.19
2022-12-16T21:37:57.604Z,-3.13
2022-12-16T21:38:57.597Z,-3.12
2022-12-16T21:39:58.589Z,-3.13
2022-12-16T21:40:57.577Z,-3.15
2022-12-16T21:41:57.576Z,-3.20
2022-12-16T21:42:57.574Z,-3.12
2022-12-16T21:43:57.563Z,-3.20
2022-12-16T21:44:57.554Z,-3.16
2022-12-16T21:45:57.548Z,-3.07
2022-12-16T21:46:57.530Z,-3.04
2022-12-16T21:47:57.541Z,-3.02
2022-12-16T21:48:58.492Z,-3.07
2022-12-16T21:49:57.524Z,-3.10
2022-12-16T21:50:58.420Z,-2.99
2022-12-16T21:51:57.565Z,-3.04
2022-12-16T21:52:57.495Z,-2.97
2022-12-16T21:53:57.482Z,-2.97
2022-12-16T21:54:57.481Z,-3.02
2022-12-16T21:55:57.476Z,-3.07
2022-12-16T21:56:57.479Z,-2.98
2022-12-16T21:57:57.473Z,-3.09
2022-12-16T21:58:57.456Z,-3.22
2022-12-16T21:59:57.440Z,-3.16
2022-12-16T22:01:00.545Z,-3.37
2022-12-16T22:01:58.454Z,-3.45
2022-12-16T22:02:57.413Z,-3.49
2022-12-16T22:03:57.428Z,-3.46
2022-12-16T22:04:57.407Z,-3.44
2022-12-16T22:05:57.414Z,-3.49
2022-12-16T22:06:57.383Z,-3.55
2022-12-16T22:07:57.390Z,-3.51
2022-12-16T22:08:57.369Z,-3.49